createdAt,value
2018-02-20T00:02:06.423Z,-0.30
2018-02-20T00:05:12.001Z,-0.35
2018-02-20T00:08:17.634Z,-0.38
2018-02-20T00:11:23.215Z,-0.40
2018-02-20T00:14:28.731Z,-0.41
2018-02-20T00:17:34.294Z,-0.47
2018-02-20T00:20:39.856Z,-0.48
2018-02-20T00:23:45.186Z,-0.54
2018-02-20T00:26:50.704Z,-0.62
2018-02-20T00:29:56.311Z,-0.56
2018-02-20T00:33:01.847Z,-0.58
2018-02-20T00:36:07.401Z,-0.65
2018-02-20T00:39:16.412Z,-0.65
2018-02-20T00:42:23.886Z,-0.66
2018-02-20T00:45:29.473Z,-0.73
2018-02-20T00:48:35.043Z,-0.68
2018-02-20T00:51:40.577Z,-0.65
2018-02-20T00:54:46.140Z,-0.76
2018-02-20T00:57:51.689Z,-0.80
2018-02-20T01:00:57.276Z,-0.83
2018-02-20T01:04:02.813Z,-0.81
2018-02-20T01:07:08.414Z,-0.83
2018-02-20T01:10:13.939Z,-0.91
2018-02-20T01:13:19.514Z,-0.94
2018-02-20T01:16:25.035Z,-0.96
2018-02-20T01:19:30.608Z,-0.97
2018-02-20T01:22:36.151Z,-0.97
2018-02-20T01:25:41.721Z,-1.02
2018-02-20T01:28:47.241Z,-0.98
2018-02-20T01:31:52.813Z,-0.95
2018-02-20T01:34:58.329Z,-1.06
2018-02-20T01:38:03.889Z,-1.05
2018-02-20T01:41:09.420Z,-1.14
2018-02-20T01:44:14.993Z,-1.08
2018-02-20T01:47:20.554Z,-1.13
2018-02-20T01:50:26.179Z,-1.13
2018-02-20T01:53:31.761Z,-1.16
2018-02-20T01:56:37.354Z,-1.19
2018-02-20T01:59:43.101Z,-1.21
2018-02-20T02:02:48.631Z,-1.20
2018-02-20T02:05:54.209Z,-1.25
2018-02-20T02:08:59.760Z,-1.25
2018-02-20T02:12:05.328Z,-1.27
2018-02-20T02:15:10.842Z,-1.29
2018-02-20T02:18:16.438Z,-1.28
2018-02-20T02:21:21.998Z,-1.29
2018-02-20T02:24:27.557Z,-1.40
2018-02-20T02:27:33.101Z,-1.35
2018-02-20T02:30:38.696Z,-1.41
2018-02-20T02:33:44.218Z,-1.32
2018-02-20T02:36:49.806Z,-1.35
2018-02-20T02:39:55.360Z,-1.35
2018-02-20T02:43:00.940Z,-1.38
2018-02-20T02:46:06.481Z,-1.42
2018-02-20T02:49:12.039Z,-1.41
2018-02-20T02:52:17.577Z,-1.44
2018-02-20T02:55:23.173Z,-1.46
2018-02-20T02:58:28.733Z,-1.53
2018-02-20T03:01:34.250Z,-1.55
2018-02-20T03:04:39.842Z,-1.53
2018-02-20T03:07:45.386Z,-1.51
2018-02-20T03:10:50.941Z,-1.61
2018-02-20T03:13:57.300Z,-1.60
2018-02-20T03:17:02.859Z,-1.60
2018-02-20T03:20:08.488Z,-1.63
2018-02-20T03:23:14.064Z,-1.62
2018-02-20T03:26:19.634Z,-1.66
2018-02-20T03:29:25.159Z,-1.69
2018-02-20T03:32:30.733Z,-1.65
2018-02-20T03:35:36.259Z,-1.63
2018-02-20T03:38:41.825Z,-1.69
2018-02-20T03:41:47.345Z,-1.73
2018-02-20T03:44:52.910Z,-1.73
2018-02-20T03:47:58.481Z,-1.74
2018-02-20T03:51:04.000Z,-1.73
2018-02-20T03:54:09.590Z,-1.82
2018-02-20T03:57:15.152Z,-1.83
2018-02-20T04:00:20.896Z,-1.84
2018-02-20T04:03:26.420Z,-1.81
2018-02-20T04:06:31.984Z,-1.83
2018-02-20T04:09:37.601Z,-1.82
2018-02-20T04:12:49.554Z,-1.91
2018-02-20T04:15:56.796Z,-1.87
2018-02-20T04:19:02.349Z,-1.97
2018-02-20T04:22:07.861Z,-1.97
2018-02-20T04:25:13.426Z,-1.90
2018-02-20T04:28:18.942Z,-1.89
2018-02-20T04:31:24.549Z,-1.88
2018-02-20T04:34:30.113Z,-1.93
2018-02-20T04:37:36.917Z,-1.93
2018-02-20T04:40:44.796Z,-1.93
2018-02-20T04:43:50.346Z,-1.95
2018-02-20T04:46:55.932Z,-1.97
2018-02-20T04:50:02.522Z,-1.97
2018-02-20T04:53:08.091Z,-1.97
2018-02-20T04:56:14.294Z,-2.01
2018-02-20T04:59:19.867Z,-2.09
2018-02-20T05:02:25.392Z,-2.04
2018-02-20T05:05:31.364Z,-2.05
2018-02-20T05:08:37.888Z,-2.00
2018-02-20T05:11:43.451Z,-2.09
2018-02-20T05:14:49.965Z,-2.10
2018-02-20T05:17:55.296Z,-2.06
2018-02-20T05:21:00.849Z,-2.08
2018-02-20T05:24:06.422Z,-2.11
2018-02-20T05:27:12.945Z,-2.10
2018-02-20T05:30:32.096Z,-2.15
2018-02-20T05:33:37.662Z,-2.10
2018-02-20T05:36:43.177Z,-2.17
2018-02-20T05:39:50.956Z,-2.13
2018-02-20T05:42:57.011Z,-2.18
2018-02-20T05:46:02.609Z,-2.19
2018-02-20T05:49:08.143Z,-2.22
2018-02-20T05:52:13.701Z,-2.19
2018-02-20T05:55:19.257Z,-2.20
2018-02-20T05:58:24.787Z,-2.16
2018-02-20T06:01:30.357Z,-2.18
2018-02-20T06:04:35.869Z,-2.27
2018-02-20T06:07:45.705Z,-2.23
2018-02-20T06:10:51.294Z,-2.28
2018-02-20T06:13:56.867Z,-2.28
2018-02-20T06:17:02.401Z,-2.28
2018-02-20T06:20:07.977Z,-2.27
2018-02-20T06:23:13.499Z,-2.30
2018-02-20T06:26:19.071Z,-2.27
2018-02-20T06:29:24.585Z,-2.28
2018-02-20T06:32:30.145Z,-2.32
2018-02-20T06:35:35.651Z,-2.35
2018-02-20T06:38:41.230Z,-2.43
2018-02-20T06:41:46.750Z,-2.38
2018-02-20T06:44:52.324Z,-2.38
2018-02-20T06:47:57.881Z,-2.42
2018-02-20T06:51:03.394Z,-2.47
2018-02-20T06:54:08.982Z,-2.41
2018-02-20T06:57:14.493Z,-2.46
2018-02-20T07:00:20.087Z,-2.47
2018-02-20T07:03:25.645Z,-2.47
2018-02-20T07:06:31.238Z,-2.49
2018-02-20T07:09:36.792Z,-2.51
2018-02-20T07:12:42.356Z,-2.51
2018-02-20T07:15:47.914Z,-2.46
2018-02-20T07:18:53.466Z,-2.45
2018-02-20T07:21:58.983Z,-2.43
2018-02-20T07:25:04.566Z,-2.43
2018-02-20T07:28:10.121Z,-2.42
2018-02-20T07:31:15.693Z,-2.40
2018-02-20T07:34:21.201Z,-2.36
2018-02-20T07:37:26.758Z,-2.34
2018-02-20T07:40:32.346Z,-2.32
2018-02-20T07:43:37.855Z,-2.29
2018-02-20T07:46:43.436Z,-2.25
2018-02-20T07:49:48.949Z,-2.18
2018-02-20T07:52:54.515Z,-2.18
2018-02-20T07:56:00.117Z,-2.13
2018-02-20T07:59:05.642Z,-2.05
2018-02-20T08:02:11.194Z,-2.07
2018-02-20T08:05:16.718Z,-2.07
2018-02-20T08:08:22.270Z,-2.00
2018-02-20T08:11:27.876Z,-2.00
2018-02-20T08:14:33.394Z,-1.95
2018-02-20T08:17:41.427Z,-1.86
2018-02-20T08:20:46.786Z,-1.85
2018-02-20T08:23:52.301Z,-1.85
2018-02-20T08:26:57.875Z,-1.79
2018-02-20T08:30:03.152Z,-1.72
2018-02-20T08:33:08.746Z,-1.68
2018-02-20T08:36:14.262Z,-1.53
2018-02-20T08:39:19.818Z,-1.47
2018-02-20T08:42:25.341Z,-1.46
2018-02-20T08:45:30.889Z,-1.36
2018-02-20T08:48:36.414Z,-1.31
2018-02-20T08:51:41.971Z,-1.29
2018-02-20T08:54:47.494Z,-1.27
2018-02-20T08:57:53.075Z,-1.22
2018-02-20T09:00:58.632Z,-1.18
2018-02-20T09:04:04.234Z,-1.12
2018-02-20T09:07:09.817Z,-1.08
2018-02-20T09:10:15.582Z,-1.04
2018-02-20T09:13:21.102Z,-0.99
2018-02-20T09:16:26.672Z,-0.93
2018-02-20T09:19:32.191Z,-0.90
2018-02-20T09:22:37.767Z,-0.81
2018-02-20T09:25:43.362Z,-0.76
2018-02-20T09:28:48.954Z,-0.72
2018-02-20T09:31:54.508Z,-0.69
